createdAt,value
2023-04-20T00:01:28.905Z,14.88
2023-04-20T00:03:56.199Z,13.65
2023-04-20T00:06:25.669Z,14.57
2023-04-20T00:08:52.570Z,13.82
2023-04-20T00:11:19.620Z,14.88
2023-04-20T00:13:46.601Z,15.07
2023-04-20T00:16:13.681Z,12.85
2023-04-20T00:18:40.822Z,12.88
2023-04-20T00:21:07.908Z,15.13
2023-04-20T00:23:34.967Z,14.35
2023-04-20T00:26:02.035Z,15.52
2023-04-20T00:28:29.964Z,16.95
2023-04-20T00:30:58.135Z,18.77
2023-04-20T00:33:26.308Z,13.93
2023-04-20T00:35:54.009Z,14.88
2023-04-20T00:38:24.097Z,17.20
2023-04-20T00:40:54.148Z,16.30
2023-04-20T00:43:22.169Z,14.73
2023-04-20T00:45:54.871Z,15.25
2023-04-20T00:48:22.476Z,17.25
2023-04-20T00:50:50.751Z,14.85
2023-04-20T00:53:19.060Z,13.00
2023-04-20T00:55:46.498Z,15.95
2023-04-20T00:58:13.752Z,14.18
2023-04-20T01:00:40.775Z,14.05
2023-04-20T01:03:08.907Z,14.15
2023-04-20T01:05:36.287Z,13.38
2023-04-20T01:08:03.499Z,15.70
2023-04-20T01:10:31.007Z,14.57
2023-04-20T01:12:58.516Z,15.35
2023-04-20T01:15:26.232Z,15.30
2023-04-20T01:17:53.743Z,15.27
2023-04-20T01:20:23.652Z,16.88
2023-04-20T01:22:53.774Z,16.65
2023-04-20T01:25:21.122Z,15.80
2023-04-20T01:27:48.704Z,15.45
2023-04-20T01:30:17.329Z,15.32
2023-04-20T01:32:44.835Z,16.40
2023-04-20T01:35:12.104Z,14.40
2023-04-20T01:37:40.371Z,16.60
2023-04-20T01:40:12.081Z,16.75
2023-04-20T01:42:39.582Z,16.02
2023-04-20T01:45:07.446Z,15.80
2023-04-20T01:47:37.418Z,14.98
2023-04-20T01:50:05.086Z,16.77
2023-04-20T01:52:33.280Z,16.05
2023-04-20T01:55:00.472Z,19.02
2023-04-20T01:57:27.836Z,17.85
2023-04-20T01:59:55.188Z,16.20
2023-04-20T02:02:22.242Z,15.18
2023-04-20T02:04:49.422Z,16.83
2023-04-20T02:07:16.735Z,16.27
2023-04-20T02:09:43.837Z,15.77
2023-04-20T02:12:11.034Z,15.88
2023-04-20T02:14:41.144Z,14.77
2023-04-20T02:17:10.924Z,16.73
2023-04-20T02:19:38.232Z,19.08
2023-04-20T02:22:05.636Z,17.15
2023-04-20T02:24:32.772Z,14.52
2023-04-20T02:26:59.734Z,14.50
2023-04-20T02:29:27.094Z,15.55
2023-04-20T02:31:54.010Z,16.00
2023-04-20T02:34:22.307Z,17.40
2023-04-20T02:36:49.364Z,19.20
2023-04-20T02:39:16.758Z,15.48
2023-04-20T02:41:44.100Z,14.68
2023-04-20T02:44:11.988Z,15.55
2023-04-20T02:46:39.489Z,18.45
2023-04-20T02:49:07.259Z,20.48
2023-04-20T02:51:38.650Z,15.70
2023-04-20T02:54:06.056Z,16.50
2023-04-20T02:56:32.956Z,14.63
2023-04-20T02:59:05.081Z,17.90
2023-04-20T03:02:01.847Z,14.90
2023-04-20T03:04:31.029Z,18.33
2023-04-20T03:07:18.511Z,15.85
2023-04-20T03:09:47.166Z,17.00
2023-04-20T03:12:18.356Z,14.80
2023-04-20T03:14:58.628Z,15.98
2023-04-20T03:17:38.733Z,16.75
2023-04-20T03:20:09.252Z,17.48
2023-04-20T03:22:36.995Z,17.52
2023-04-20T03:25:04.160Z,16.17
2023-04-20T03:27:47.865Z,18.88
2023-04-20T03:30:16.013Z,16.75
2023-04-20T03:32:45.589Z,14.90
2023-04-20T03:35:12.972Z,17.92
2023-04-20T03:37:41.120Z,17.92
2023-04-20T03:40:09.460Z,18.05
2023-04-20T03:42:37.647Z,15.45
2023-04-20T03:45:06.744Z,16.40
2023-04-20T03:47:33.882Z,16.40
2023-04-20T03:50:01.418Z,16.83
2023-04-20T03:52:32.478Z,13.80
2023-04-20T03:55:03.851Z,16.45
2023-04-20T03:57:33.458Z,13.90
2023-04-20T04:00:03.414Z,18.83
2023-04-20T04:02:46.150Z,18.90
2023-04-20T04:05:17.010Z,14.75
2023-04-20T04:07:44.510Z,16.95
2023-04-20T04:10:13.234Z,15.13
2023-04-20T04:12:40.614Z,18.17
2023-04-20T04:15:08.397Z,17.42
2023-04-20T04:17:41.570Z,16.48
2023-04-20T04:20:09.183Z,27.25
2023-04-20T04:22:37.069Z,17.58
2023-04-20T04:25:23.321Z,16.50
2023-04-20T04:27:51.226Z,17.55
2023-04-20T04:30:20.031Z,20.35
2023-04-20T04:32:49.115Z,18.92
2023-04-20T04:35:16.824Z,22.48
2023-04-20T04:37:43.833Z,21.80
2023-04-20T04:40:11.323Z,18.83
2023-04-20T04:42:39.165Z,19.85
2023-04-20T04:45:10.654Z,16.87
2023-04-20T04:47:42.317Z,21.42
2023-04-20T04:50:10.905Z,19.63
2023-04-20T04:52:37.812Z,20.40
2023-04-20T04:55:08.495Z,16.33
2023-04-20T04:57:36.513Z,20.42
2023-04-20T05:00:07.958Z,16.88
2023-04-20T05:02:35.771Z,18.52
2023-04-20T05:05:02.835Z,18.77
2023-04-20T05:07:31.238Z,19.35
2023-04-20T05:09:58.190Z,21.30
2023-04-20T05:12:25.868Z,18.73
2023-04-20T05:14:53.276Z,20.55
2023-04-20T05:17:20.531Z,17.17
2023-04-20T05:19:47.504Z,18.05
2023-04-20T05:22:14.482Z,20.27
2023-04-20T05:24:42.614Z,21.15
2023-04-20T05:27:11.296Z,25.25
2023-04-20T05:29:38.899Z,21.27
2023-04-20T05:32:06.133Z,21.30
2023-04-20T05:34:33.974Z,19.08
2023-04-20T05:37:01.254Z,20.63
2023-04-20T05:39:28.393Z,19.00
2023-04-20T05:41:55.406Z,20.27
2023-04-20T05:44:22.444Z,20.08
2023-04-20T05:46:50.415Z,21.92
2023-04-20T05:49:17.570Z,21.80
2023-04-20T05:51:44.941Z,19.00
2023-04-20T05:54:12.677Z,21.23
2023-04-20T05:56:39.590Z,20.02
2023-04-20T05:59:07.113Z,22.83
2023-04-20T06:01:34.471Z,25.02
2023-04-20T06:04:01.702Z,19.95
2023-04-20T06:06:28.915Z,20.60
2023-04-20T06:08:56.182Z,19.58
2023-04-20T06:11:23.214Z,22.58
2023-04-20T06:13:55.821Z,20.00
2023-04-20T06:16:23.401Z,21.23
2023-04-20T06:18:50.436Z,21.10
2023-04-20T06:21:17.675Z,23.45
2023-04-20T06:23:44.727Z,21.15
2023-04-20T06:26:30.824Z,25.52
2023-04-20T06:28:57.872Z,25.45
2023-04-20T06:31:24.866Z,25.35
2023-04-20T06:33:52.073Z,22.35
2023-04-20T06:36:18.946Z,25.50
2023-04-20T06:38:45.996Z,27.23
2023-04-20T06:41:13.167Z,22.63
2023-04-20T06:43:42.059Z,23.17
2023-04-20T06:46:09.249Z,31.40
2023-04-20T06:48:36.141Z,28.50
2023-04-20T06:51:03.326Z,25.63
2023-04-20T06:53:30.451Z,24.13
2023-04-20T06:55:57.576Z,23.90
2023-04-20T06:58:24.471Z,26.23
2023-04-20T07:00:51.536Z,25.33
2023-04-20T07:03:19.401Z,24.35
2023-04-20T07:05:47.005Z,24.35
2023-04-20T07:08:16.057Z,25.02
2023-04-20T07:10:43.364Z,23.23
2023-04-20T07:13:10.607Z,24.30
2023-04-20T07:15:37.696Z,24.52
2023-04-20T07:18:04.839Z,23.80
2023-04-20T07:20:32.182Z,19.67
2023-04-20T07:22:59.114Z,22.25
2023-04-20T07:25:26.344Z,22.05
2023-04-20T07:27:53.374Z,22.65
2023-04-20T07:30:20.477Z,21.77
2023-04-20T07:32:47.638Z,22.38
2023-04-20T07:35:14.920Z,19.67
2023-04-20T07:37:41.971Z,21.33
2023-04-20T07:40:09.627Z,20.05
2023-04-20T07:42:37.739Z,21.45
2023-04-20T07:45:06.779Z,20.25
2023-04-20T07:47:35.377Z,20.65
2023-04-20T07:50:06.362Z,21.48
2023-04-20T07:52:34.555Z,18.92
2023-04-20T07:55:02.536Z,23.92
2023-04-20T07:57:34.846Z,21.13
2023-04-20T08:00:01.916Z,22.00
2023-04-20T08:02:41.088Z,19.30
2023-04-20T08:05:10.441Z,17.55
2023-04-20T08:10:06.483Z,18.42
2023-04-20T08:12:35.632Z,17.10
2023-04-20T08:15:06.371Z,19.42
2023-04-20T08:17:34.493Z,19.23
2023-04-20T08:20:02.307Z,18.80
2023-04-20T08:22:33.730Z,21.35
2023-04-20T08:25:01.393Z,21.02
2023-04-20T08:27:33.967Z,20.45
2023-04-20T08:30:01.363Z,22.20
2023-04-20T08:32:33.005Z,19.52
2023-04-20T08:34:59.990Z,19.40
2023-04-20T08:37:27.209Z,17.08
2023-04-20T08:39:55.339Z,18.92
2023-04-20T08:42:24.931Z,21.15
2023-04-20T08:47:32.255Z,18.30
2023-04-20T08:50:04.679Z,17.48
2023-04-20T08:55:00.712Z,17.67
2023-04-20T08:57:33.993Z,18.58
2023-04-20T09:00:08.383Z,18.98
2023-04-20T09:02:36.714Z,23.05
2023-04-20T09:05:05.271Z,18.02
2023-04-20T09:07:33.928Z,19.40
2023-04-20T09:10:01.512Z,17.17
2023-04-20T09:12:41.844Z,21.02
2023-04-20T09:15:10.619Z,18.73
2023-04-20T09:17:40.990Z,22.40
2023-04-20T09:20:09.491Z,15.98
2023-04-20T09:22:37.950Z,16.38
2023-04-20T09:25:19.214Z,17.40
2023-04-20T09:27:58.171Z,16.73
2023-04-20T09:30:25.496Z,18.13
2023-04-20T09:33:03.236Z,18.67
2023-04-20T09:35:31.352Z,16.42
2023-04-20T09:37:58.404Z,17.38
2023-04-20T09:40:26.497Z,19.65
2023-04-20T09:42:54.946Z,16.35
2023-04-20T09:45:22.881Z,17.07
2023-04-20T09:47:51.189Z,26.83
2023-04-20T09:50:26.649Z,18.35
2023-04-20T09:52:54.577Z,17.13
2023-04-20T09:55:22.022Z,14.15
2023-04-20T09:57:50.605Z,18.10
2023-04-20T10:00:18.135Z,14.13
2023-04-20T10:02:48.287Z,15.20
2023-04-20T10:05:16.869Z,14.48
2023-04-20T10:07:44.412Z,17.13
2023-04-20T10:10:16.571Z,15.63
2023-04-20T10:12:51.598Z,17.98
2023-04-20T10:15:18.743Z,13.85
2023-04-20T10:17:46.315Z,16.25
2023-04-20T10:20:28.183Z,14.75
2023-04-20T10:23:08.071Z,15.80
2023-04-20T10:25:35.428Z,15.45
2023-04-20T10:28:06.226Z,15.38
2023-04-20T10:30:36.156Z,16.75
2023-04-20T10:33:07.518Z,14.30
2023-04-20T10:35:51.136Z,17.38
2023-04-20T10:38:32.247Z,15.02
2023-04-20T10:41:13.151Z,15.43
2023-04-20T10:43:43.359Z,14.18
2023-04-20T10:46:22.021Z,12.95
2023-04-20T10:49:03.838Z,13.30
2023-04-20T10:51:31.540Z,15.07
2023-04-20T10:53:59.228Z,15.80
2023-04-20T10:56:27.232Z,14.70
2023-04-20T10:58:54.631Z,15.60
2023-04-20T11:01:22.413Z,14.57
2023-04-20T11:03:53.704Z,13.20
2023-04-20T11:06:22.797Z,13.80
2023-04-20T11:08:49.820Z,16.13
2023-04-20T11:11:25.619Z,15.23
2023-04-20T11:13:53.392Z,13.80
2023-04-20T11:16:20.518Z,13.73
2023-04-20T11:18:55.295Z,13.55
2023-04-20T11:21:22.762Z,13.77
2023-04-20T11:23:50.640Z,17.00
2023-04-20T11:26:18.145Z,12.60
2023-04-20T11:28:56.183Z,11.73
2023-04-20T11:31:23.865Z,16.17
2023-04-20T11:33:51.069Z,11.05
2023-04-20T11:36:20.117Z,13.80
2023-04-20T11:38:47.400Z,14.60
2023-04-20T11:41:14.630Z,12.70
2023-04-20T11:43:43.435Z,14.50
2023-04-20T11:46:20.648Z,11.40
2023-04-20T11:48:49.439Z,11.52
2023-04-20T11:51:16.616Z,9.85
2023-04-20T11:53:43.586Z,11.30
2023-04-20T11:56:12.393Z,12.57
2023-04-20T11:58:40.159Z,9.68
2023-04-20T12:01:07.263Z,10.82
2023-04-20T12:03:34.266Z,10.52
2023-04-20T12:06:01.650Z,12.40
2023-04-20T12:08:28.718Z,11.77
2023-04-20T12:10:57.344Z,10.15
2023-04-20T12:13:27.457Z,12.00
2023-04-20T12:15:54.648Z,12.90
2023-04-20T12:18:24.805Z,14.00
2023-04-20T12:20:52.089Z,12.45
2023-04-20T12:23:21.570Z,14.73
2023-04-20T12:25:49.403Z,13.30
2023-04-20T12:28:17.708Z,14.13
2023-04-20T12:30:44.960Z,14.38
2023-04-20T12:33:13.363Z,14.17
2023-04-20T12:35:41.172Z,13.73
2023-04-20T12:38:08.210Z,12.35
2023-04-20T12:40:35.645Z,13.23
2023-04-20T12:43:03.057Z,13.27
2023-04-20T12:45:30.182Z,12.27
2023-04-20T12:48:00.402Z,13.48
2023-04-20T12:50:28.544Z,12.93
2023-04-20T12:53:02.366Z,12.05
2023-04-20T12:55:32.556Z,13.20
2023-04-20T12:57:59.675Z,11.90
2023-04-20T13:00:26.800Z,11.07
2023-04-20T13:02:54.510Z,10.55
2023-04-20T13:05:21.808Z,12.10
2023-04-20T13:07:48.843Z,9.60
2023-04-20T13:10:15.993Z,11.65
2023-04-20T13:12:43.128Z,11.02
2023-04-20T13:15:11.356Z,12.63
2023-04-20T13:17:38.758Z,14.63
2023-04-20T13:20:06.551Z,11.43
2023-04-20T13:22:41.115Z,12.07
2023-04-20T13:25:17.798Z,10.18
2023-04-20T13:27:44.752Z,8.73
2023-04-20T13:30:12.554Z,9.82
2023-04-20T13:32:39.560Z,11.48
2023-04-20T13:35:07.514Z,10.35
2023-04-20T13:37:34.575Z,10.50
2023-04-20T13:40:01.735Z,16.42
2023-04-20T13:42:31.826Z,11.52
2023-04-20T13:44:58.767Z,10.95
2023-04-20T13:47:26.289Z,9.98
2023-04-20T13:49:53.353Z,15.80
2023-04-20T13:52:29.946Z,12.15
2023-04-20T13:55:01.930Z,12.73
2023-04-20T13:57:31.716Z,12.52
2023-04-20T14:00:01.632Z,12.10
2023-04-20T14:02:34.402Z,13.55
2023-04-20T14:05:06.246Z,13.90
2023-04-20T14:08:49.496Z,11.68
2023-04-20T14:16:26.328Z,11.70
2023-04-20T14:24:54.255Z,10.02
2023-04-20T14:27:21.576Z,11.25
2023-04-20T14:29:50.902Z,15.20
2023-04-20T14:32:18.835Z,8.00
2023-04-20T14:34:45.963Z,8.75
2023-04-20T14:37:14.173Z,10.02
2023-04-20T14:39:41.450Z,8.27
2023-04-20T14:42:08.529Z,7.55
2023-04-20T14:44:35.650Z,11.80
2023-04-20T14:47:03.509Z,10.18
2023-04-20T14:49:30.498Z,7.97
2023-04-20T14:51:57.418Z,8.80
2023-04-20T14:54:24.510Z,6.93
2023-04-20T14:56:51.967Z,7.90
2023-04-20T14:59:19.417Z,8.32
2023-04-20T15:02:01.212Z,8.27
2023-04-20T15:04:29.640Z,8.85
2023-04-20T15:06:56.799Z,9.45
2023-04-20T15:09:23.920Z,7.88
2023-04-20T15:11:50.985Z,10.70
2023-04-20T15:14:18.262Z,9.75
2023-04-20T15:16:45.582Z,9.05
2023-04-20T15:19:12.548Z,8.98
2023-04-20T15:21:39.876Z,10.60
2023-04-20T15:24:07.490Z,9.90
2023-04-20T15:26:35.343Z,10.98
2023-04-20T15:29:02.425Z,10.88
2023-04-20T15:31:29.535Z,10.40
2023-04-20T15:33:59.144Z,10.40
2023-04-20T15:36:26.476Z,11.13
2023-04-20T15:38:54.575Z,8.65
2023-04-20T15:41:23.269Z,9.95
2023-04-20T15:43:51.323Z,9.70
2023-04-20T15:46:18.859Z,9.38
2023-04-20T15:48:46.012Z,10.40
2023-04-20T15:51:13.096Z,10.57
2023-04-20T15:53:40.307Z,13.77
2023-04-20T15:56:07.747Z,11.73
2023-04-20T15:58:34.802Z,10.15
2023-04-20T16:01:01.827Z,11.55
2023-04-20T16:03:29.123Z,8.98
2023-04-20T16:05:56.292Z,12.68
2023-04-20T16:08:25.829Z,11.95
2023-04-20T16:10:54.896Z,13.43
2023-04-20T16:13:21.806Z,15.80
2023-04-20T16:15:49.503Z,11.05
2023-04-20T16:18:16.768Z,13.63
2023-04-20T16:20:44.079Z,11.55
2023-04-20T16:23:11.236Z,11.40
2023-04-20T16:25:38.775Z,9.05
2023-04-20T16:28:06.112Z,10.05
2023-04-20T16:30:39.029Z,11.98
2023-04-20T16:33:06.309Z,12.20
2023-04-20T16:35:33.347Z,9.63
2023-04-20T16:38:00.966Z,14.25
2023-04-20T16:40:28.575Z,13.43
2023-04-20T16:42:55.552Z,15.05
2023-04-20T16:45:22.667Z,11.07
2023-04-20T16:47:51.437Z,12.95
2023-04-20T16:50:22.039Z,12.90
2023-04-20T16:52:49.427Z,13.32
2023-04-20T16:55:16.531Z,12.60
2023-04-20T16:57:44.620Z,12.63
2023-04-20T17:00:12.972Z,15.73
2023-04-20T17:02:40.572Z,17.15
2023-04-20T17:05:08.285Z,12.20
2023-04-20T17:07:37.050Z,14.02
2023-04-20T17:10:04.831Z,16.95
2023-04-20T17:12:32.543Z,13.80
2023-04-20T17:15:00.913Z,13.65
2023-04-20T17:17:28.652Z,17.60
2023-04-20T17:19:55.879Z,14.07
2023-04-20T17:22:25.806Z,13.25
2023-04-20T17:24:54.196Z,14.07
2023-04-20T17:27:24.115Z,13.90
2023-04-20T17:29:51.762Z,11.63
2023-04-20T17:32:19.047Z,18.35
2023-04-20T17:34:51.393Z,12.07
2023-04-20T17:37:18.800Z,18.30
2023-04-20T17:39:46.110Z,15.63
2023-04-20T17:42:13.473Z,14.57
2023-04-20T17:44:40.609Z,14.27
2023-04-20T17:47:09.730Z,18.40
2023-04-20T17:49:37.168Z,22.75
2023-04-20T17:52:04.370Z,22.55
2023-04-20T17:54:34.010Z,15.05
2023-04-20T17:57:01.566Z,16.23
2023-04-20T17:59:30.740Z,15.57
2023-04-20T18:01:59.455Z,17.73
2023-04-20T18:04:27.130Z,18.10
2023-04-20T18:06:54.526Z,16.00
2023-04-20T18:09:23.254Z,14.40
2023-04-20T18:11:50.336Z,18.48
2023-04-20T18:14:17.768Z,21.73
2023-04-20T18:16:45.077Z,19.83
2023-04-20T18:19:12.109Z,18.33
2023-04-20T18:21:39.026Z,28.63
2023-04-20T18:24:07.328Z,35.15
2023-04-20T18:26:34.454Z,23.27
2023-04-20T18:29:01.436Z,22.02
2023-04-20T18:31:29.349Z,22.23
2023-04-20T18:33:56.452Z,16.67
2023-04-20T18:36:23.439Z,21.15
2023-04-20T18:38:51.485Z,18.67
2023-04-20T18:41:18.558Z,18.27
2023-04-20T18:43:47.114Z,20.83
2023-04-20T18:46:14.562Z,14.70
2023-04-20T18:48:41.884Z,17.00
2023-04-20T18:51:09.163Z,13.82
2023-04-20T18:53:36.456Z,15.65
2023-04-20T18:56:03.869Z,17.45
2023-04-20T18:58:31.871Z,17.15
2023-04-20T19:01:01.184Z,14.90
2023-04-20T19:05:55.370Z,15.73
2023-04-20T19:08:23.098Z,14.32
2023-04-20T19:10:50.680Z,15.70
2023-04-20T19:13:23.854Z,14.40
2023-04-20T19:15:57.716Z,14.70
2023-04-20T19:18:26.918Z,16.20
2023-04-20T19:20:54.425Z,18.85
2023-04-20T19:23:22.211Z,18.02
2023-04-20T19:25:49.327Z,16.83
2023-04-20T19:28:16.443Z,18.50
2023-04-20T19:30:43.788Z,17.83
2023-04-20T19:33:10.963Z,16.42
2023-04-20T19:35:38.251Z,14.18
2023-04-20T19:38:05.195Z,15.98
2023-04-20T19:40:32.333Z,15.20
2023-04-20T19:42:59.249Z,15.73
2023-04-20T19:45:26.474Z,16.33
2023-04-20T19:47:53.470Z,17.75
2023-04-20T19:50:20.668Z,13.38
2023-04-20T19:52:47.662Z,13.73
2023-04-20T19:55:15.253Z,16.75
2023-04-20T19:57:42.218Z,16.17
2023-04-20T20:00:10.290Z,14.68
2023-04-20T20:02:40.483Z,14.10
2023-04-20T20:05:08.735Z,13.80
2023-04-20T20:07:36.400Z,13.48
2023-04-20T20:10:04.679Z,15.18
2023-04-20T20:12:33.768Z,13.82
2023-04-20T20:15:01.131Z,27.33
2023-04-20T20:17:29.563Z,56.13
2023-04-20T20:19:56.526Z,13.80
2023-04-20T20:22:23.749Z,15.77
2023-04-20T20:24:52.200Z,16.05
2023-04-20T20:27:19.470Z,13.55
2023-04-20T20:29:46.813Z,15.98
2023-04-20T20:32:13.832Z,15.98
2023-04-20T20:34:41.413Z,14.95
2023-04-20T20:37:10.519Z,17.55
2023-04-20T20:39:44.626Z,15.57
2023-04-20T20:42:12.548Z,13.10
2023-04-20T20:45:50.012Z,15.52
2023-04-20T20:48:17.398Z,14.77
2023-04-20T20:50:44.664Z,13.55
2023-04-20T20:53:12.270Z,15.35
2023-04-20T20:55:39.197Z,18.60
2023-04-20T20:58:09.145Z,15.80
2023-04-20T21:00:36.496Z,16.58
2023-04-20T21:03:03.655Z,20.25
2023-04-20T21:05:31.890Z,15.48
2023-04-20T21:07:59.885Z,18.42
2023-04-20T21:10:27.088Z,17.20
2023-04-20T21:12:54.102Z,17.38
2023-04-20T21:15:21.286Z,15.25
2023-04-20T21:17:50.914Z,13.73
2023-04-20T21:20:18.703Z,14.27
2023-04-20T21:22:45.725Z,13.30
2023-04-20T21:25:12.977Z,16.05
2023-04-20T21:27:40.005Z,15.15
2023-04-20T21:30:16.127Z,13.55
2023-04-20T21:32:57.726Z,16.90
2023-04-20T21:35:24.792Z,14.68
2023-04-20T21:37:51.835Z,18.38
2023-04-20T21:40:18.901Z,14.23
2023-04-20T21:42:46.011Z,14.10
2023-04-20T21:45:13.018Z,13.57
2023-04-20T21:47:40.279Z,12.07
2023-04-20T21:50:07.464Z,13.52
2023-04-20T21:52:34.837Z,15.23
2023-04-20T21:55:01.759Z,13.00
2023-04-20T21:57:31.187Z,13.80
2023-04-20T21:59:58.518Z,12.75
2023-04-20T22:02:25.816Z,13.77
2023-04-20T22:04:52.933Z,14.60
2023-04-20T22:07:20.975Z,12.95
2023-04-20T22:09:48.044Z,13.45
2023-04-20T22:12:15.133Z,15.32
2023-04-20T22:14:43.023Z,14.48
2023-04-20T22:17:11.825Z,15.35
2023-04-20T22:19:39.046Z,17.90
2023-04-20T22:22:06.099Z,19.38
2023-04-20T22:24:33.429Z,18.48
2023-04-20T22:27:01.418Z,16.27
2023-04-20T22:29:28.834Z,17.58
2023-04-20T22:31:55.896Z,12.70
2023-04-20T22:34:22.773Z,16.05
2023-04-20T22:36:50.008Z,21.95
2023-04-20T22:39:17.229Z,18.52
2023-04-20T22:41:44.490Z,18.50
2023-04-20T22:44:11.419Z,23.73
2023-04-20T22:46:38.839Z,18.17
2023-04-20T22:49:05.767Z,19.77
2023-04-20T22:51:33.362Z,18.65
2023-04-20T22:54:02.897Z,18.67
2023-04-20T22:56:30.490Z,16.55
2023-04-20T22:58:57.627Z,20.23
2023-04-20T23:01:25.155Z,18.13
2023-04-20T23:03:52.452Z,20.13
2023-04-20T23:06:22.046Z,17.42
2023-04-20T23:08:50.670Z,17.00
2023-04-20T23:11:18.869Z,19.48
2023-04-20T23:13:48.535Z,16.08
2023-04-20T23:16:15.536Z,17.17
2023-04-20T23:18:42.524Z,20.63
2023-04-20T23:21:10.806Z,19.02
2023-04-20T23:23:37.705Z,19.25
2023-04-20T23:26:04.854Z,18.17
2023-04-20T23:28:32.069Z,21.85
2023-04-20T23:31:00.028Z,21.77
2023-04-20T23:33:27.102Z,16.98
2023-04-20T23:35:54.303Z,23.38
2023-04-20T23:38:21.339Z,17.13
2023-04-20T23:40:48.376Z,18.15
2023-04-20T23:43:15.368Z,20.30
2023-04-20T23:45:42.524Z,15.65
2023-04-20T23:48:10.666Z,14.55
2023-04-20T23:50:37.836Z,17.05
2023-04-20T23:53:05.740Z,16.67
2023-04-20T23:55:33.158Z,17.58
2023-04-20T23:58:00.191Z,17.20
